ADDS METAR Data INFO
IDs: Format: Raw Decoded Include TAF

Data at: 0305 UTC 21 Oct 2017

KMAW 210255Z AUTO 16005KT 10SM CLR 17/11 A3012 RMK AO2
KMAW 210235Z AUTO 14006KT 10SM CLR 17/11 A3011 RMK AO2
KMAW 210215Z AUTO 14005KT 10SM CLR 17/11 A3011 RMK AO2
KMAW 210155Z AUTO 13005KT 10SM CLR 18/11 A3011 RMK AO2
KMAW 210135Z AUTO 13005KT 10SM CLR 19/10 A3011 RMK AO2
KMAW 210115Z AUTO 15006KT 10SM CLR 20/10 A3011 RMK AO2
KMAW 210055Z AUTO 14005KT 10SM CLR 19/10 A3011 RMK AO2
KMAW 210035Z AUTO 14006KT 10SM CLR 20/10 A3011 RMK AO2
KMAW 210015Z AUTO 15007KT 10SM CLR 21/10 A3012 RMK AO2
KMAW 202355Z AUTO 13007KT 10SM CLR 21/11 A3011 RMK AO2
KMAW 202335Z AUTO 12006KT 10SM CLR 22/11 A3011 RMK AO2
KMAW 202315Z AUTO 14005KT 10SM CLR 23/11 A3012 RMK AO2
KMAW 202255Z AUTO 14005KT 10SM CLR 23/11 A3012 RMK AO2
KMAW 202235Z AUTO 14005KT 10SM CLR 24/10 A3013 RMK AO2
KMAW 202215Z AUTO 13009KT 10SM CLR 25/10 A3012 RMK AO2
KMAW 202155Z AUTO 15006KT 10SM CLR 25/10 A3014 RMK AO2
KMAW 202135Z AUTO 15008KT 10SM CLR 25/10 A3014 RMK AO2
KMAW 202115Z AUTO 17005KT 7SM CLR 25/10 A3014 RMK AO2
KMAW 202055Z AUTO 15007KT 7SM CLR 25/10 A3013 RMK AO2
KMAW 202035Z AUTO 15010KT 10SM CLR 25/09 A3013 RMK AO2
KMAW 202015Z AUTO 20008KT 10SM CLR 25/08 A3014 RMK AO2
KMAW 201955Z AUTO 17011KT 10SM CLR 26/10 A3015 RMK AO2
KMAW 201935Z AUTO 15007KT 10SM CLR 26/11 A3016 RMK AO2
KMAW 201915Z AUTO 17006KT 10SM CLR 25/10 A3017 RMK AO2
KMAW 201855Z AUTO 15004KT 10SM CLR 25/10 A3017 RMK AO2
KMAW 201835Z AUTO 16007KT 10SM CLR 24/11 A3019 RMK AO2
KMAW 201815Z AUTO 15006KT 10SM CLR 24/11 A3020 RMK AO2
KMAW 201755Z AUTO 16006KT 10SM CLR 25/11 A3021 RMK AO2
KMAW 201735Z AUTO 19006KT 10SM CLR 24/12 A3022 RMK AO2
KMAW 201715Z AUTO 17007KT 10SM CLR 23/12 A3023 RMK AO2
KMAW 201655Z AUTO 17008KT 10SM CLR 23/12 A3024 RMK AO2
KMAW 201635Z AUTO 17008KT 10SM CLR 21/12 A3025 RMK AO2
KMAW 201615Z AUTO 17006KT 10SM CLR 20/12 A3026 RMK AO2
KMAW 201555Z AUTO 16003KT 10SM CLR 20/12 A3026 RMK AO2
KMAW 201535Z AUTO 14004KT 10SM CLR 18/12 A3026 RMK AO2
KMAW 201515Z AUTO 17004KT 10SM CLR 17/12 A3027 RMK AO2
KMAW 201455Z AUTO 00000KT 10SM CLR 16/12 A3027 RMK AO2
KMAW 201435Z AUTO 00000KT 10SM CLR 15/12 A3027 RMK AO2
KMAW 201415Z AUTO 00000KT 10SM CLR 13/11 A3027 RMK AO2
KMAW 201355Z AUTO 00000KT 10SM CLR 11/10 A3027 RMK AO2
KMAW 201335Z AUTO 00000KT 10SM CLR 10/08 A3026 RMK AO2
KMAW 201315Z AUTO 00000KT 7SM CLR 08/07 A3025 RMK AO2
KMAW 201255Z AUTO 00000KT 10SM CLR 08/06 A3024 RMK AO2
KMAW 201235Z AUTO 00000KT 10SM CLR 07/06 A3025 RMK AO2
KMAW 201215Z AUTO 00000KT 10SM CLR 08/07 A3024 RMK AO2
KMAW 201155Z AUTO 00000KT 4SM BR CLR 08/07 A3024 RMK AO2
KMAW 201135Z AUTO 00000KT 7SM CLR 10/08 A3024 RMK AO2
KMAW 201115Z AUTO 00000KT 7SM CLR 10/08 A3024 RMK AO2
KMAW 201055Z AUTO 00000KT 7SM CLR 09/08 A3024 RMK AO2
KMAW 201035Z AUTO 00000KT 3SM BR CLR 09/08 A3023 RMK AO2
KMAW 201015Z AUTO 00000KT 7SM CLR 10/08 A3022 RMK AO2
KMAW 200955Z AUTO 00000KT 10SM CLR 10/08 A3022 RMK AO2
KMAW 200935Z AUTO 00000KT 5SM BR CLR 10/08 A3022 RMK AO2
KMAW 200915Z AUTO 00000KT 10SM CLR 10/08 A3022 RMK AO2
KMAW 200855Z AUTO 16003KT 10SM CLR 12/10 A3022 RMK AO2
KMAW 200835Z AUTO 00000KT 10SM CLR 11/09 A3021 RMK AO2
KMAW 200815Z AUTO 00000KT 10SM CLR 11/09 A3022 RMK AO2
KMAW 200755Z AUTO 00000KT 10SM CLR 11/09 A3021 RMK AO2
KMAW 200735Z AUTO 00000KT 10SM CLR 11/08 A3022 RMK AO2
KMAW 200715Z AUTO 18003KT 10SM CLR 13/10 A3021 RMK AO2
KMAW 200655Z AUTO 15004KT 10SM CLR 13/10 A3021 RMK AO2
KMAW 200635Z AUTO 15004KT 10SM CLR 13/10 A3021 RMK AO2
KMAW 200615Z AUTO 17003KT 10SM CLR 12/10 A3021 RMK AO2
KMAW 200555Z AUTO 19004KT 10SM CLR 12/09 A3021 RMK AO2
KMAW 200535Z AUTO 17003KT 10SM CLR 13/10 A3021 RMK AO2
KMAW 200515Z AUTO 00000KT 10SM CLR 14/10 A3021 RMK AO2
KMAW 200455Z AUTO 17004KT 10SM CLR 13/10 A3021 RMK AO2
KMAW 200435Z AUTO 18003KT 10SM CLR 13/10 A3021 RMK AO2
KMAW 200415Z AUTO 18004KT 10SM CLR 13/10 A3021 RMK AO2
KMAW 200355Z AUTO 18005KT 10SM CLR 13/10 A3021 RMK AO2
KMAW 200335Z AUTO 17004KT 10SM CLR 13/09 A3021 RMK AO2
KMAW 200315Z AUTO 18003KT 10SM CLR 15/09 A3021 RMK AO2
KMAW 200255Z AUTO 00000KT 10SM CLR 15/10 A3020 RMK AO2
KMAW 200235Z AUTO 17003KT 10SM CLR 16/10 A3020 RMK AO2
KMAW 200215Z AUTO 17003KT 10SM CLR 16/09 A3020 RMK AO2
KMAW 200155Z AUTO 00000KT 10SM CLR 16/09 A3020 RMK AO2
KMAW 200135Z AUTO 15005KT 10SM CLR 18/10 A3020 RMK AO2
KMAW 200115Z AUTO 15005KT 10SM CLR 18/10 A3020 RMK AO2
KMAW 200055Z AUTO 14005KT 10SM CLR 18/10 A3020 RMK AO2
KMAW 200035Z AUTO 14005KT 10SM CLR 20/10 A3020 RMK AO2
KMAW 200015Z AUTO 14005KT 10SM CLR 20/09 A3019 RMK AO2
KMAW 192355Z AUTO 15005KT 10SM CLR 21/08 A3019 RMK AO2
KMAW 192335Z AUTO 17004KT 10SM CLR 22/08 A3018 RMK AO2
KMAW 192315Z AUTO 17005KT 10SM CLR 24/08 A3018 RMK AO2
KMAW 192255Z AUTO 17006KT 10SM CLR 25/07 A3018 RMK AO2
KMAW 192235Z AUTO 17008KT 10SM CLR 26/07 A3018 RMK AO2
KMAW 192215Z AUTO 19009KT 10SM CLR 26/07 A3018 RMK AO2
KMAW 192155Z AUTO 17008KT 10SM CLR 27/07 A3018 RMK AO2
KMAW 192135Z AUTO 16008KT 10SM CLR 27/07 A3018 RMK AO2
KMAW 192115Z AUTO 21006KT 10SM CLR 27/08 A3018 RMK AO2
KMAW 192055Z AUTO 21008KT 10SM CLR 26/08 A3019 RMK AO2
KMAW 192035Z AUTO 20008KT 10SM CLR 26/07 A3019 RMK AO2
KMAW 192015Z AUTO 17008KT 10SM CLR 26/08 A3019 RMK AO2
KMAW 191955Z AUTO 22004KT 10SM CLR 26/08 A3019 RMK AO2
KMAW 191935Z AUTO 17011KT 10SM CLR 26/08 A3020 RMK AO2
KMAW 191915Z AUTO 20005KT 10SM CLR 26/09 A3021 RMK AO2
KMAW 191855Z AUTO 21008KT 10SM CLR 25/09 A3022 RMK AO2
KMAW 191835Z AUTO 23008KT 10SM CLR 25/10 A3023 RMK AO2
KMAW 191815Z AUTO 23006KT 10SM CLR 24/10 A3024 RMK AO2
KMAW 191755Z AUTO 18005KT 10SM CLR 23/10 A3025 RMK AO2
KMAW 191735Z AUTO 19008KT 10SM CLR 23/10 A3026 RMK AO2
KMAW 191715Z AUTO 20009KT 10SM CLR 22/10 A3027 RMK AO2
KMAW 191655Z AUTO 22007KT 10SM CLR 22/10 A3027 RMK AO2
KMAW 191635Z AUTO 21006KT 10SM CLR 21/10 A3027 RMK AO2
KMAW 191615Z AUTO 20008KT 10SM CLR 20/10 A3027 RMK AO2
KMAW 191555Z AUTO 21008KT 10SM CLR 19/10 A3028 RMK AO2
KMAW 191535Z AUTO 19009KT 10SM CLR 18/10 A3028 RMK AO2
KMAW 191515Z AUTO 21008KT 10SM CLR 17/10 A3027 RMK AO2